Time;durP1;ratioP1;P1;durP2;ratioP2;P2;SDS_P1;SDS_P2;PMS_P1;PMS_P2;Temp;Humidity;BMP_temperature;BMP_pressure;BME280_temperature;BME280_humidity;BME280_pressure;Samples;Min_cycle;Max_cycle;Signal;HPM_P1;HPM_P2
2022/07/13 00:02:16;;;;;;;7.40;4.00;;;20.40;77.70;;;;;;5052099;28;20444;-45
2022/07/13 00:04:43;;;;;;;3.70;2.87;;;20.50;78.00;;;;;;5052051;28;20813;-44
2022/07/13 00:07:09;;;;;;;5.23;3.67;;;20.50;78.20;;;;;;5052481;28;20441;-45
2022/07/13 00:09:37;;;;;;;5.80;3.10;;;20.80;78.60;;;;;;5052626;28;20438;-46
2022/07/13 00:12:05;;;;;;;8.33;3.30;;;20.50;78.40;;;;;;5057264;28;20442;-46
2022/07/13 00:14:32;;;;;;;3.60;2.73;;;20.40;78.50;;;;;;5056250;28;20896;-44
2022/07/13 00:16:59;;;;;;;4.03;2.50;;;20.40;78.70;;;;;;5055727;28;20433;-45
2022/07/13 00:19:25;;;;;;;4.13;2.43;;;20.30;78.80;;;;;;5055550;28;20436;-44
2022/07/13 00:21:52;;;;;;;3.70;2.40;;;20.30;78.70;;;;;;5055934;28;20435;-42
2022/07/13 00:24:19;;;;;;;4.33;2.50;;;20.30;78.90;;;;;;5055822;28;20451;-42
2022/07/13 00:26:47;;;;;;;4.00;2.80;;;20.30;79.10;;;;;;5055603;28;20530;-43
2022/07/13 00:29:14;;;;;;;3.30;2.50;;;20.20;79.10;;;;;;5055113;28;20450;-43
2022/07/13 00:31:41;;;;;;;6.80;3.23;;;20.30;79.50;;;;;;5037546;28;20479;-43
2022/07/13 00:34:08;;;;;;;3.23;2.50;;;20.40;79.80;;;;;;5037277;28;20478;-44
2022/07/13 00:36:35;;;;;;;5.50;2.57;;;20.10;79.40;;;;;;5055448;28;20514;-43
2022/07/13 00:39:01;;;;;;;4.67;2.50;;;20.30;79.50;;;;;;5054855;28;20503;-43
2022/07/13 00:41:28;;;;;;;5.40;3.40;;;20.20;79.50;;;;;;5055623;28;20919;-44
2022/07/13 00:44:06;;;;;;;3.87;2.53;;;20.20;79.50;;;;;;5066643;22;20557;-48
2022/07/13 00:46:34;;;;;;;3.37;2.93;;;20.50;79.90;;;;;;5052851;28;20449;-48
2022/07/13 00:49:00;;;;;;;3.90;2.50;;;20.40;79.70;;;;;;5053613;28;20768;-48
2022/07/13 00:51:27;;;;;;;2.90;2.10;;;20.40;79.60;;;;;;5053931;28;20477;-48
2022/07/13 00:53:54;;;;;;;3.20;1.70;;;20.50;79.60;;;;;;5052351;28;20841;-48
2022/07/13 00:56:22;;;;;;;7.13;2.50;;;20.50;79.60;;;;;;5054374;28;20758;-48
2022/07/13 00:58:49;;;;;;;3.60;1.87;;;20.50;79.40;;;;;;5053582;28;20733;-48
2022/07/13 01:01:17;;;;;;;4.37;2.80;;;20.30;79.30;;;;;;5052667;28;20486;-48
2022/07/13 01:03:44;;;;;;;2.63;2.00;;;20.30;79.10;;;;;;5052460;28;20466;-47
2022/07/13 01:06:12;;;;;;;2.80;1.80;;;20.50;79.10;;;;;;5054160;28;20430;-47
2022/07/13 01:08:38;;;;;;;7.27;1.93;;;20.50;79.00;;;;;;5053722;28;20436;-48
2022/07/13 01:11:05;;;;;;;4.73;2.60;;;20.60;79.00;;;;;;5052644;28;20460;-47
2022/07/13 01:13:32;;;;;;;5.10;2.57;;;20.50;78.90;;;;;;5052247;28;20500;-47
2022/07/13 01:15:59;;;;;;;3.67;2.40;;;20.90;79.40;;;;;;5053903;28;20465;-47
2022/07/13 01:18:28;;;;;;;3.27;1.80;;;20.60;79.20;;;;;;5051907;28;20447;-47
2022/07/13 01:20:54;;;;;;;6.53;2.37;;;20.40;79.10;;;;;;5053526;28;20460;-47
2022/07/13 01:23:23;;;;;;;4.23;2.30;;;20.60;80.20;;;;;;5053696;28;20467;-48
2022/07/13 01:25:49;;;;;;;8.90;7.20;;;20.60;79.50;;;;;;5053565;28;20440;-47
2022/07/13 01:28:16;;;;;;;6.40;3.80;;;20.50;79.60;;;;;;5052213;28;20466;-47
2022/07/13 01:30:44;;;;;;;3.90;2.87;;;20.60;79.70;;;;;;5052894;28;20432;-47
2022/07/13 01:33:10;;;;;;;5.63;3.40;;;20.60;79.70;;;;;;5053327;28;20969;-48
2022/07/13 01:35:37;;;;;;;5.07;3.00;;;20.60;79.90;;;;;;5053540;28;20427;-47
2022/07/13 01:38:04;;;;;;;4.47;2.83;;;20.60;79.90;;;;;;5053253;28;20444;-48
2022/07/13 01:40:35;;;;;;;7.30;3.40;;;20.50;79.70;;;;;;5052844;28;20434;-47
2022/07/13 01:43:05;;;;;;;4.47;2.63;;;20.50;79.60;;;;;;5052938;28;20482;-48
2022/07/13 01:45:31;;;;;;;3.90;2.67;;;20.50;79.60;;;;;;5051740;28;20459;-49
2022/07/13 01:47:58;;;;;;;4.00;2.50;;;20.50;79.70;;;;;;5053094;28;20442;-47
2022/07/13 01:50:27;;;;;;;3.03;2.30;;;20.40;79.70;;;;;;5051001;28;20448;-48
2022/07/13 01:52:54;;;;;;;3.57;2.20;;;20.50;79.80;;;;;;5051396;28;20462;-47
2022/07/13 01:55:21;;;;;;;3.50;2.00;;;20.80;80.20;;;;;;5051547;28;20455;-47
2022/07/13 01:57:49;;;;;;;4.80;2.03;;;20.40;79.80;;;;;;5051399;28;20467;-48
2022/07/13 02:00:17;;;;;;;4.20;1.77;;;20.50;79.90;;;;;;5051223;28;20435;-47
2022/07/13 02:02:47;;;;;;;3.80;2.00;;;20.50;80.00;;;;;;5052748;28;20444;-48
2022/07/13 02:05:18;;;;;;;2.33;1.73;;;20.50;80.10;;;;;;5051650;28;20454;-47
2022/07/13 02:07:44;;;;;;;3.70;1.77;;;20.50;80.10;;;;;;5051793;28;20753;-48
2022/07/13 02:10:12;;;;;;;2.63;1.67;;;20.50;80.10;;;;;;5051189;28;20447;-48
2022/07/13 02:12:40;;;;;;;3.50;2.50;;;20.50;80.20;;;;;;5051161;28;20448;-48
2022/07/13 02:15:10;;;;;;;3.73;2.43;;;20.50;80.20;;;;;;5052604;28;20486;-47
2022/07/13 02:17:39;;;;;;;4.33;2.20;;;20.50;80.20;;;;;;5052801;28;20428;-48
2022/07/13 02:20:07;;;;;;;3.00;1.97;;;20.40;80.20;;;;;;5050749;28;20818;-48
2022/07/13 02:22:44;;;;;;;3.10;1.90;;;20.50;80.40;;;;;;5052474;28;20431;-47
2022/07/13 02:25:11;;;;;;;2.90;2.00;;;20.50;80.50;;;;;;5052439;28;20430;-48
2022/07/13 02:27:39;;;;;;;3.77;2.20;;;20.30;80.30;;;;;;5050808;28;20470;-48
2022/07/13 02:30:09;;;;;;;5.07;2.30;;;20.40;80.60;;;;;;5050761;28;20465;-48
2022/07/13 02:32:36;;;;;;;4.23;2.13;;;20.40;80.70;;;;;;5051753;28;20474;-48
2022/07/13 02:35:03;;;;;;;3.10;2.20;;;20.50;81.00;;;;;;5050496;28;20482;-48
2022/07/13 02:37:29;;;;;;;3.00;1.90;;;20.50;81.20;;;;;;5051012;28;20454;-48
2022/07/13 02:39:56;;;;;;;3.60;1.90;;;20.20;81.10;;;;;;5051797;28;20427;-48
2022/07/13 02:42:24;;;;;;;3.00;2.07;;;20.20;81.40;;;;;;5050731;28;20497;-48
2022/07/13 02:44:51;;;;;;;4.73;2.80;;;20.30;81.70;;;;;;5050406;28;20479;-48
2022/07/13 02:47:19;;;;;;;3.23;2.00;;;20.40;81.90;;;;;;5050459;28;20451;-48
2022/07/13 02:49:45;;;;;;;3.10;1.77;;;20.40;82.20;;;;;;5051447;28;21122;-48
2022/07/13 02:52:13;;;;;;;3.47;1.70;;;20.40;82.30;;;;;;5051946;28;20430;-48
2022/07/13 02:54:39;;;;;;;2.60;1.90;;;20.20;82.20;;;;;;5052083;28;20845;-48
2022/07/13 02:57:06;;;;;;;3.03;1.80;;;20.40;82.50;;;;;;5051887;28;20546;-48
2022/07/13 02:59:33;;;;;;;3.17;1.77;;;20.40;82.50;;;;;;5049898;28;20483;-49
2022/07/13 03:02:00;;;;;;;2.97;1.97;;;20.40;82.80;;;;;;5050168;28;20457;-48
2022/07/13 03:04:28;;;;;;;6.03;2.17;;;20.40;82.90;;;;;;5050064;28;20464;-48
2022/07/13 03:06:55;;;;;;;3.20;2.00;;;20.50;83.30;;;;;;5051796;28;20812;-48
2022/07/13 03:09:22;;;;;;;3.10;1.90;;;20.40;83.30;;;;;;5049578;28;20535;-48
2022/07/13 03:11:50;;;;;;;4.57;2.20;;;20.20;83.20;;;;;;5050277;28;20842;-47
2022/07/13 03:14:16;;;;;;;2.23;1.70;;;20.40;83.40;;;;;;5049926;28;20848;-48
2022/07/13 03:16:43;;;;;;;2.30;1.70;;;20.20;83.40;;;;;;5050131;28;20448;-48
2022/07/13 03:19:10;;;;;;;7.13;2.13;;;20.30;83.60;;;;;;5049659;28;20448;-48
2022/07/13 03:21:38;;;;;;;3.60;2.63;;;20.30;83.80;;;;;;5049630;28;20447;-48
2022/07/13 03:24:05;;;;;;;6.60;2.37;;;20.50;84.30;;;;;;5051117;28;20450;-48
2022/07/13 03:26:32;;;;;;;2.57;1.80;;;20.50;84.30;;;;;;5049863;28;20534;-48
2022/07/13 03:28:59;;;;;;;3.90;2.27;;;20.50;84.40;;;;;;5050764;28;20495;-48
2022/07/13 03:31:26;;;;;;;2.90;2.00;;;20.50;84.50;;;;;;5049650;28;20543;-48
2022/07/13 03:33:54;;;;;;;6.33;1.90;;;20.50;84.80;;;;;;5049458;28;20510;-48
2022/07/13 03:36:21;;;;;;;2.97;2.07;;;20.30;84.60;;;;;;5049599;28;20442;-48
2022/07/13 03:38:49;;;;;;;9.33;2.20;;;20.70;85.30;;;;;;5049216;28;21039;-48
2022/07/13 03:41:16;;;;;;;3.97;2.03;;;20.50;85.20;;;;;;5049609;28;20438;-48
2022/07/13 03:43:43;;;;;;;4.07;1.97;;;20.60;85.50;;;;;;5050665;28;20468;-48
2022/07/13 03:46:10;;;;;;;3.50;2.17;;;20.50;85.40;;;;;;5049514;28;20456;-48
2022/07/13 03:48:37;;;;;;;6.90;2.10;;;20.50;85.60;;;;;;5048914;28;20463;-48
2022/07/13 03:51:04;;;;;;;2.97;1.97;;;20.50;85.60;;;;;;5049448;28;20443;-48
2022/07/13 03:53:31;;;;;;;5.70;2.10;;;20.40;85.80;;;;;;5049293;28;20514;-48
2022/07/13 03:55:59;;;;;;;6.50;2.50;;;20.50;86.00;;;;;;5049346;28;20813;-49
2022/07/13 03:58:26;;;;;;;2.70;1.47;;;20.50;86.20;;;;;;5048649;28;20467;-49
2022/07/13 04:00:53;;;;;;;5.53;2.30;;;20.50;86.30;;;;;;5049244;28;20564;-48
2022/07/13 04:03:20;;;;;;;3.60;2.33;;;20.80;86.80;;;;;;5049225;28;20847;-47
2022/07/13 04:05:47;;;;;;;4.10;2.33;;;20.50;86.60;;;;;;5048791;28;20444;-48
2022/07/13 04:08:13;;;;;;;3.60;2.30;;;20.60;86.80;;;;;;5048952;28;20455;-48
2022/07/13 04:10:40;;;;;;;5.80;3.30;;;20.60;87.00;;;;;;5048910;28;20586;-48
2022/07/13 04:13:08;;;;;;;6.70;2.50;;;20.20;86.60;;;;;;5050098;28;20467;-48
2022/07/13 04:15:34;;;;;;;8.87;2.70;;;20.40;86.90;;;;;;5049032;28;20481;-48
2022/07/13 04:18:02;;;;;;;9.63;2.20;;;20.80;87.40;;;;;;5049056;28;20444;-48
2022/07/13 04:20:28;;;;;;;4.13;2.13;;;20.30;86.80;;;;;;5050150;28;20459;-47
2022/07/13 04:22:56;;;;;;;5.37;2.03;;;20.90;87.60;;;;;;5048995;28;20484;-48
2022/07/13 04:25:23;;;;;;;4.07;2.17;;;20.70;87.30;;;;;;5048806;28;20983;-48
2022/07/13 04:27:50;;;;;;;4.23;2.37;;;20.70;87.30;;;;;;5049007;28;20449;-48
2022/07/13 04:30:18;;;;;;;9.43;2.90;;;20.70;87.40;;;;;;5048533;28;20457;-48
2022/07/13 04:32:45;;;;;;;5.70;2.50;;;20.90;87.70;;;;;;5048783;28;20532;-47
2022/07/13 04:35:11;;;;;;;6.33;2.20;;;20.80;87.60;;;;;;5048800;28;20483;-48
2022/07/13 04:37:41;;;;;;;4.63;2.47;;;20.80;87.60;;;;;;5048705;28;20470;-49
2022/07/13 04:40:09;;;;;;;7.87;2.20;;;20.80;87.60;;;;;;5049641;28;20440;-49
2022/07/13 04:42:36;;;;;;;8.03;3.50;;;21.30;88.10;;;;;;5048886;28;20452;-48
2022/07/13 04:45:03;;;;;;;9.20;3.00;;;20.70;87.50;;;;;;5048566;28;20966;-48
2022/07/13 04:47:31;;;;;;;8.23;2.90;;;21.00;87.90;;;;;;5048586;28;20449;-48
2022/07/13 04:49:58;;;;;;;10.03;3.20;;;21.00;87.90;;;;;;5049694;28;20435;-48
2022/07/13 04:52:24;;;;;;;5.83;2.30;;;21.00;87.90;;;;;;5048980;28;20454;-49
2022/07/13 04:54:51;;;;;;;8.30;2.70;;;21.10;87.90;;;;;;5048668;28;20510;-48
2022/07/13 04:57:18;;;;;;;5.30;2.67;;;21.10;87.80;;;;;;5051189;28;20550;-49
2022/07/13 04:59:44;;;;;;;3.80;2.10;;;21.10;87.60;;;;;;5052248;28;20459;-49
2022/07/13 05:02:11;;;;;;;4.30;2.50;;;20.90;87.40;;;;;;5053755;28;20429;-49
2022/07/13 05:04:39;;;;;;;7.50;2.50;;;20.90;87.30;;;;;;5051967;28;20460;-48
2022/07/13 05:07:06;;;;;;;5.40;2.80;;;21.40;87.80;;;;;;5053246;28;20432;-49
2022/07/13 05:09:34;;;;;;;9.67;2.30;;;21.40;87.70;;;;;;5051793;28;21001;-48
2022/07/13 05:12:01;;;;;;;4.50;2.27;;;21.40;87.60;;;;;;5051999;28;20457;-47
2022/07/13 05:14:29;;;;;;;3.90;2.30;;;21.50;87.60;;;;;;5051791;28;20556;-48
2022/07/13 05:16:56;;;;;;;4.03;2.63;;;21.50;87.50;;;;;;5053409;28;20480;-48
2022/07/13 05:19:23;;;;;;;3.87;2.50;;;21.60;87.50;;;;;;5051729;28;20471;-49
2022/07/13 05:21:52;;;;;;;5.97;2.60;;;21.70;87.40;;;;;;5051817;28;20507;-47
2022/07/13 05:24:18;;;;;;;6.97;3.57;;;21.90;87.50;;;;;;5051651;28;20469;-47
2022/07/13 05:26:45;;;;;;;5.20;2.70;;;22.00;87.40;;;;;;5053194;28;20436;-49
2022/07/13 05:29:13;;;;;;;5.60;2.23;;;21.70;87.00;;;;;;5052971;28;20442;-48
2022/07/13 05:31:39;;;;;;;6.80;2.43;;;21.90;87.10;;;;;;5053184;28;20953;-49
2022/07/13 05:34:07;;;;;;;5.40;2.37;;;21.90;86.90;;;;;;5051715;28;20465;-47
2022/07/13 05:36:37;;;;;;;4.33;2.50;;;21.90;86.90;;;;;;5051983;28;20461;-48
2022/07/13 05:39:05;;;;;;;4.07;2.63;;;22.00;86.90;;;;;;5052858;28;20445;-48
2022/07/13 05:41:34;;;;;;;4.27;2.87;;;22.00;86.90;;;;;;5053040;28;20461;-48
2022/07/13 05:44:01;;;;;;;3.83;2.23;;;21.70;86.60;;;;;;5051322;28;20986;-48
2022/07/13 05:46:28;;;;;;;2.40;1.70;;;22.00;87.10;;;;;;5052683;28;20989;-49
2022/07/13 05:48:55;;;;;;;3.20;1.80;;;22.00;87.10;;;;;;5052490;28;20469;-49
2022/07/13 05:51:21;;;;;;;5.23;3.23;;;22.00;87.20;;;;;;5051564;28;20439;-48
2022/07/13 05:53:48;;;;;;;4.23;2.90;;;22.20;87.30;;;;;;5051133;28;20489;-49
2022/07/13 05:56:16;;;;;;;4.10;2.53;;;22.00;87.20;;;;;;5051437;28;20488;-48
2022/07/13 05:58:43;;;;;;;6.80;2.63;;;21.90;87.10;;;;;;5052276;28;20441;-48
2022/07/13 06:01:10;;;;;;;6.53;2.33;;;22.10;87.20;;;;;;5052294;28;20855;-48
2022/07/13 06:03:36;;;;;;;4.40;2.20;;;22.10;87.20;;;;;;5052358;28;21117;-48
2022/07/13 06:06:03;;;;;;;6.83;2.50;;;22.30;87.40;;;;;;5052233;28;20440;-48
2022/07/13 06:08:30;;;;;;;7.10;2.27;;;22.30;87.30;;;;;;5050758;28;20816;-49
2022/07/13 06:10:57;;;;;;;4.07;2.87;;;22.30;87.10;;;;;;5052184;28;20437;-49
2022/07/13 06:13:25;;;;;;;5.13;2.63;;;22.50;87.10;;;;;;5052115;28;20457;-49
2022/07/13 06:15:51;;;;;;;8.70;2.40;;;22.60;86.80;;;;;;5051968;28;20545;-49
2022/07/13 06:18:18;;;;;;;5.90;2.90;;;22.60;86.50;;;;;;5052276;28;20438;-48
2022/07/13 06:20:44;;;;;;;5.20;2.40;;;22.70;86.30;;;;;;5051697;28;20462;-50
2022/07/13 06:23:11;;;;;;;4.57;2.60;;;22.80;86.10;;;;;;5051842;28;20455;-48
2022/07/13 06:25:38;;;;;;;9.10;2.83;;;22.90;85.90;;;;;;5052163;28;20535;-48
2022/07/13 06:28:05;;;;;;;9.53;2.80;;;23.00;85.70;;;;;;5052002;28;20436;-49
2022/07/13 06:30:33;;;;;;;8.40;2.33;;;23.10;85.40;;;;;;5051464;28;20432;-47
2022/07/13 06:33:00;;;;;;;10.70;2.90;;;23.30;85.40;;;;;;5051613;28;20488;-48
2022/07/13 06:35:27;;;;;;;4.50;2.30;;;23.40;84.80;;;;;;5051588;28;20491;-48
2022/07/13 06:37:54;;;;;;;5.30;2.10;;;23.40;84.30;;;;;;5051255;28;20439;-48
2022/07/13 06:40:20;;;;;;;6.73;2.50;;;23.60;84.20;;;;;;5051405;28;20446;-48
2022/07/13 06:42:47;;;;;;;4.93;2.17;;;23.70;83.90;;;;;;5051408;28;20434;-48
2022/07/13 06:45:16;;;;;;;8.40;3.03;;;23.70;83.50;;;;;;5074941;22;20507;-51
2022/07/13 06:47:44;;;;;;;5.90;2.47;;;23.90;83.30;;;;;;5052378;28;20441;-52
2022/07/13 06:50:11;;;;;;;6.13;2.80;;;24.00;83.00;;;;;;5052187;28;20780;-51
2022/07/13 06:52:40;;;;;;;4.80;2.77;;;24.10;82.70;;;;;;5052184;28;20543;-51
2022/07/13 06:55:08;;;;;;;6.87;2.33;;;24.20;82.40;;;;;;5051948;28;20937;-51
2022/07/13 06:57:35;;;;;;;8.47;2.37;;;24.40;81.70;;;;;;5052213;28;20437;-51
2022/07/13 07:00:02;;;;;;;4.90;2.23;;;24.50;81.50;;;;;;5051433;28;20435;-52
2022/07/13 07:02:29;;;;;;;3.50;2.27;;;24.60;81.00;;;;;;5052237;28;20523;-52
2022/07/13 07:04:57;;;;;;;4.93;1.70;;;24.70;81.40;;;;;;5052230;28;20537;-51
2022/07/13 07:07:24;;;;;;;4.33;2.50;;;24.80;81.10;;;;;;5052270;28;20794;-52
2022/07/13 07:09:51;;;;;;;4.73;2.57;;;24.90;80.10;;;;;;5051425;28;20434;-50
2022/07/13 07:12:17;;;;;;;6.37;2.50;;;24.90;79.80;;;;;;5051801;28;20498;-51
2022/07/13 07:14:44;;;;;;;6.13;2.53;;;25.00;79.70;;;;;;5051683;28;20565;-51
2022/07/13 07:17:11;;;;;;;5.97;2.00;;;25.10;79.50;;;;;;5051756;28;20439;-51
2022/07/13 07:19:38;;;;;;;5.27;2.63;;;25.20;79.10;;;;;;5051357;28;20529;-52
2022/07/13 07:22:06;;;;;;;11.33;3.70;;;25.30;78.90;;;;;;5051672;28;20566;-52
2022/07/13 07:24:32;;;;;;;7.63;2.03;;;25.30;78.20;;;;;;5051588;28;20462;-52
2022/07/13 07:26:59;;;;;;;3.67;2.47;;;25.40;78.20;;;;;;5051523;28;20450;-52
2022/07/13 07:29:26;;;;;;;7.97;3.10;;;25.50;78.00;;;;;;5051308;28;20435;-51
2022/07/13 07:31:52;;;;;;;3.57;2.40;;;25.50;77.40;;;;;;5051209;28;20536;-52
2022/07/13 07:34:19;;;;;;;6.50;2.70;;;25.60;76.90;;;;;;5051640;28;20581;-51
2022/07/13 07:36:45;;;;;;;5.70;2.40;;;25.70;76.60;;;;;;5051376;28;20478;-51
2022/07/13 07:39:13;;;;;;;4.07;2.70;;;25.80;76.20;;;;;;5051260;28;20439;-52
2022/07/13 07:41:41;;;;;;;2.07;1.53;;;25.80;75.80;;;;;;5051326;28;20454;-51
2022/07/13 07:44:08;;;;;;;5.37;2.10;;;25.90;75.40;;;;;;5051107;28;20471;-50
2022/07/13 07:46:35;;;;;;;2.50;1.90;;;26.00;75.30;;;;;;5051079;28;20431;-52
2022/07/13 07:49:03;;;;;;;6.63;1.70;;;26.10;75.20;;;;;;5051077;28;20445;-50
2022/07/13 07:51:29;;;;;;;3.87;2.20;;;26.20;74.70;;;;;;5051351;28;20514;-51
2022/07/13 07:53:56;;;;;;;4.43;1.90;;;26.30;74.30;;;;;;5051167;28;20462;-52
2022/07/13 07:56:24;;;;;;;4.47;1.73;;;26.30;73.80;;;;;;5051379;28;20486;-53
2022/07/13 07:58:51;;;;;;;2.60;1.80;;;26.40;73.70;;;;;;5050589;28;20430;-51
2022/07/13 08:01:18;;;;;;;2.80;1.93;;;26.50;73.60;;;;;;5051095;28;20809;-52
2022/07/13 08:03:44;;;;;;;3.43;1.67;;;26.60;73.30;;;;;;5051136;28;20452;-51
2022/07/13 08:06:12;;;;;;;3.57;2.00;;;26.60;72.90;;;;;;5051256;28;20961;-50
2022/07/13 08:08:39;;;;;;;6.00;1.80;;;26.80;72.80;;;;;;5051276;28;20430;-50
2022/07/13 08:11:07;;;;;;;10.67;2.57;;;26.90;72.40;;;;;;5051422;28;20468;-52
2022/07/13 08:13:35;;;;;;;5.67;2.30;;;27.00;72.00;;;;;;5051103;28;20994;-52
2022/07/13 08:16:02;;;;;;;3.60;2.47;;;27.10;71.30;;;;;;5051132;28;20478;-51
2022/07/13 08:18:29;;;;;;;3.17;2.70;;;27.00;70.50;;;;;;5050845;28;20426;-49
2022/07/13 08:20:55;;;;;;;4.77;2.20;;;27.10;70.00;;;;;;5051116;28;20795;-52
2022/07/13 08:26:06;;;;;;;6.07;3.00;;;27.10;69.60;;;;;;5051385;28;20514;-51
2022/07/13 08:28:33;;;;;;;6.20;2.37;;;27.10;69.30;;;;;;5050622;28;20434;-49
2022/07/13 08:31:01;;;;;;;3.60;1.97;;;27.20;69.10;;;;;;5051277;28;20968;-52
2022/07/13 08:38:35;;;;;;;2.83;2.00;;;27.20;68.40;;;;;;5054973;28;20430;-50
2022/07/13 08:39:07;;;;;;;31.77;2.20;;;27.40;67.30;;;;;;5054884;28;20444;-50
2022/07/13 08:41:34;;;;;;;5.97;1.87;;;27.50;66.90;;;;;;5054794;28;20485;-52
2022/07/13 08:44:01;;;;;;;2.30;1.23;;;27.60;66.80;;;;;;5054631;28;20458;-51
2022/07/13 08:46:29;;;;;;;1.87;1.60;;;27.70;66.80;;;;;;5054616;28;20426;-51
2022/07/13 08:48:57;;;;;;;2.33;1.97;;;27.80;66.40;;;;;;5054468;28;20433;-51
2022/07/13 08:51:25;;;;;;;7.03;2.00;;;28.00;65.90;;;;;;5055103;28;20853;-51
2022/07/13 08:53:53;;;;;;;4.97;2.20;;;28.00;64.60;;;;;;5054857;28;20474;-51
2022/07/13 08:56:21;;;;;;;2.17;1.60;;;28.10;64.70;;;;;;5054755;28;20844;-51
2022/07/13 08:58:48;;;;;;;5.10;2.03;;;27.90;63.90;;;;;;5054593;28;20430;-51
2022/07/13 09:01:15;;;;;;;3.70;1.50;;;28.30;64.40;;;;;;5053178;28;20480;-52
2022/07/13 09:03:43;;;;;;;4.77;1.30;;;28.30;64.30;;;;;;5054295;28;20820;-51
2022/07/13 09:06:12;;;;;;;11.40;1.67;;;28.30;63.20;;;;;;5054588;28;20781;-51
2022/07/13 09:08:42;;;;;;;2.20;1.63;;;28.40;63.10;;;;;;5054199;28;20790;-52
2022/07/13 09:11:09;;;;;;;1.90;1.60;;;28.50;62.60;;;;;;5054232;28;20860;-52
2022/07/13 09:13:38;;;;;;;2.80;1.90;;;28.60;62.50;;;;;;5054451;28;20817;-50
2022/07/13 09:16:16;;;;;;;2.17;1.33;;;28.70;62.60;;;;;;5054116;28;20978;-51
2022/07/13 09:18:45;;;;;;;4.20;1.40;;;28.70;61.90;;;;;;5053612;28;20436;-51
2022/07/13 09:21:12;;;;;;;3.73;1.50;;;28.80;61.80;;;;;;5054091;28;20442;-51
2022/07/13 09:23:39;;;;;;;2.00;1.80;;;28.80;61.90;;;;;;5054180;28;20454;-53
2022/07/13 09:26:06;;;;;;;2.40;1.80;;;28.80;61.60;;;;;;5053852;28;20441;-52
2022/07/13 09:28:43;;;;;;;3.40;1.53;;;28.90;61.30;;;;;;5053587;28;20444;-51
2022/07/13 09:31:09;;;;;;;2.37;1.50;;;29.00;61.00;;;;;;5053326;28;20950;-51
2022/07/13 09:33:38;;;;;;;2.60;1.87;;;29.00;61.20;;;;;;5053738;28;20461;-50
2022/07/13 09:36:14;;;;;;;3.10;1.50;;;29.20;60.90;;;;;;5053991;28;20489;-52
2022/07/13 09:38:42;;;;;;;7.50;1.83;;;29.30;60.40;;;;;;5053730;28;20462;-50
2022/07/13 09:41:23;;;;;;;2.87;2.00;;;29.30;60.40;;;;;;5054053;28;20998;-51
2022/07/13 09:46:53;;;;;;;3.63;2.07;;;29.40;59.60;;;;;;5053474;28;20437;-51
2022/07/13 09:49:20;;;;;;;2.40;1.77;;;29.60;59.30;;;;;;5053224;28;20471;-51
2022/07/13 09:51:57;;;;;;;2.53;1.97;;;29.70;59.30;;;;;;5053513;28;20434;-50
2022/07/13 09:54:25;;;;;;;3.90;1.57;;;29.70;58.90;;;;;;5054020;28;20451;-50
2022/07/13 09:56:53;;;;;;;3.03;2.00;;;29.80;58.70;;;;;;5053529;28;20475;-51
2022/07/13 09:59:21;;;;;;;3.70;2.33;;;29.80;58.50;;;;;;5052847;28;20443;-51
2022/07/13 10:01:48;;;;;;;1.90;1.60;;;29.80;58.30;;;;;;5053346;28;20778;-51
2022/07/13 10:04:15;;;;;;;7.10;2.80;;;29.80;58.30;;;;;;5052972;28;20546;-51
2022/07/13 10:06:42;;;;;;;4.07;2.27;;;29.90;58.30;;;;;;5051607;28;20442;-51
2022/07/13 10:09:10;;;;;;;6.03;1.60;;;30.00;58.20;;;;;;5052674;28;20430;-51
2022/07/13 10:11:37;;;;;;;2.73;1.53;;;30.00;57.90;;;;;;5053338;28;20496;-52
2022/07/13 10:14:05;;;;;;;5.90;2.13;;;30.10;57.80;;;;;;5053430;28;20473;-52
2022/07/13 10:16:32;;;;;;;2.30;2.03;;;30.10;57.70;;;;;;5053225;28;20516;-51
2022/07/13 10:19:04;;;;;;;2.40;1.93;;;30.00;57.30;;;;;;5052878;28;20425;-52
2022/07/13 10:21:42;;;;;;;3.43;2.17;;;30.20;57.30;;;;;;5052847;28;20915;-52
2022/07/13 10:24:17;;;;;;;5.43;1.73;;;30.20;57.30;;;;;;5053037;28;20541;-52
2022/07/13 10:26:44;;;;;;;4.27;1.70;;;30.10;57.00;;;;;;5052795;28;20435;-52
2022/07/13 10:29:12;;;;;;;14.10;2.33;;;30.10;57.30;;;;;;5052602;28;20790;-52
2022/07/13 10:31:40;;;;;;;2.40;1.60;;;30.20;57.50;;;;;;5052770;28;20533;-51
2022/07/13 10:34:09;;;;;;;2.60;2.33;;;29.80;56.90;;;;;;5052641;28;20957;-51
2022/07/13 10:37:00;;;;;;;4.27;1.80;;;30.20;56.90;;;;;;5051296;28;20474;-51
2022/07/13 10:39:29;;;;;;;11.23;2.10;;;30.30;55.80;;;;;;5041922;28;20464;-52
2022/07/13 10:41:58;;;;;;;5.43;1.70;;;30.40;56.30;;;;;;5052917;28;20474;-51
2022/07/13 10:44:33;;;;;;;3.60;2.50;;;30.50;56.00;;;;;;5052250;28;20974;-52
2022/07/13 10:47:00;;;;;;;4.20;2.43;;;30.60;55.30;;;;;;5052095;28;20538;-51
2022/07/13 10:49:44;;;;;;;2.17;1.50;;;30.70;55.40;;;;;;5051846;28;20431;-51
2022/07/13 10:52:47;;;;;;;2.77;1.70;;;30.60;54.00;;;;;;5052361;28;20895;-52
2022/07/13 10:55:32;;;;;;;2.33;1.60;;;30.50;53.50;;;;;;5051911;28;20464;-51
2022/07/13 10:58:00;;;;;;;2.70;1.70;;;30.50;54.00;;;;;;5052085;28;20478;-51
2022/07/13 11:00:44;;;;;;;2.37;1.60;;;30.50;54.30;;;;;;5051974;28;20534;-51
2022/07/13 11:03:31;;;;;;;1.97;1.77;;;30.60;54.10;;;;;;5052239;28;20442;-51
2022/07/13 11:06:05;;;;;;;3.93;1.50;;;30.70;53.70;;;;;;5052120;28;20419;-51
2022/07/13 11:08:32;;;;;;;3.63;2.33;;;30.70;52.30;;;;;;5052048;28;20438;-51
2022/07/13 11:11:16;;;;;;;1.77;1.53;;;30.60;51.50;;;;;;5051909;28;20438;-51
2022/07/13 11:13:45;;;;;;;2.63;1.90;;;30.70;49.10;;;;;;5050209;28;20847;-51
2022/07/13 11:16:13;;;;;;;3.50;1.80;;;30.60;49.90;;;;;;5051406;28;20661;-51
2022/07/13 11:18:41;;;;;;;3.50;1.80;;;30.50;50.20;;;;;;5051597;28;20496;-52
2022/07/13 11:21:10;;;;;;;2.40;1.97;;;30.50;50.10;;;;;;5051985;28;20465;-51
2022/07/13 11:26:55;;;;;;;3.53;1.60;;;30.30;51.30;;;;;;5051443;28;20437;-52
2022/07/13 11:29:28;;;;;;;2.30;1.77;;;30.30;51.70;;;;;;5051239;28;20437;-52
2022/07/13 11:31:56;;;;;;;3.10;1.83;;;30.30;51.90;;;;;;5051131;28;20474;-51
2022/07/13 11:34:23;;;;;;;3.70;2.13;;;30.30;52.20;;;;;;5051206;28;20450;-51
2022/07/13 11:36:50;;;;;;;3.13;2.20;;;30.40;52.30;;;;;;5051706;28;20472;-51
2022/07/13 11:39:24;;;;;;;1.97;1.63;;;30.50;52.40;;;;;;5049431;28;20465;-54
2022/07/13 11:41:53;;;;;;;3.40;2.20;;;30.50;52.40;;;;;;5051767;28;20435;-51
2022/07/13 11:44:22;;;;;;;2.70;1.77;;;30.40;52.60;;;;;;5051383;28;20480;-50
2022/07/13 11:46:50;;;;;;;2.10;1.53;;;30.40;52.80;;;;;;5049998;28;20447;-50
2022/07/13 11:49:16;;;;;;;2.17;1.67;;;30.40;52.50;;;;;;5051041;28;20439;-51
2022/07/13 11:51:44;;;;;;;2.83;2.20;;;30.40;52.30;;;;;;5049718;28;20458;-50
2022/07/13 11:54:12;;;;;;;3.20;1.87;;;30.40;52.30;;;;;;5051968;28;20457;-51
2022/07/13 11:56:47;;;;;;;2.10;1.77;;;30.50;52.30;;;;;;5051448;28;20470;-52
2022/07/13 11:59:15;;;;;;;2.67;2.00;;;30.50;52.30;;;;;;5050968;28;20433;-49
2022/07/13 12:01:50;;;;;;;3.70;1.80;;;30.50;52.50;;;;;;5050758;28;20974;-50
2022/07/13 12:04:22;;;;;;;4.33;1.73;;;30.60;52.50;;;;;;5051291;28;20478;-51
2022/07/13 12:06:48;;;;;;;5.60;2.33;;;30.40;52.30;;;;;;5050185;28;20435;-50
2022/07/13 12:09:18;;;;;;;3.00;2.20;;;30.70;52.50;;;;;;5050194;28;20438;-51
2022/07/13 12:11:45;;;;;;;5.27;2.50;;;30.80;52.40;;;;;;5051058;28;20510;-51
2022/07/13 12:14:12;;;;;;;4.17;2.53;;;30.90;52.40;;;;;;5050933;28;20462;-52
2022/07/13 12:16:40;;;;;;;9.70;2.10;;;31.00;52.20;;;;;;5050799;28;20868;-52
2022/07/13 12:19:08;;;;;;;2.10;1.77;;;30.90;52.50;;;;;;5049059;28;20541;-50
2022/07/13 12:21:36;;;;;;;3.30;2.33;;;30.90;51.80;;;;;;5051105;28;20809;-51
2022/07/13 12:24:03;;;;;;;2.17;1.77;;;31.00;52.00;;;;;;5050861;28;20818;-52
2022/07/13 12:26:30;;;;;;;2.70;1.97;;;31.00;52.00;;;;;;5051787;28;20426;-52
2022/07/13 12:28:57;;;;;;;4.40;1.93;;;30.90;51.80;;;;;;5050267;28;20467;-52
2022/07/13 12:31:24;;;;;;;2.73;1.90;;;30.90;51.40;;;;;;5050548;28;20434;-52
2022/07/13 12:33:53;;;;;;;3.90;1.90;;;30.90;51.40;;;;;;5050749;28;20450;-50
2022/07/13 12:36:22;;;;;;;3.17;2.40;;;30.90;51.00;;;;;;5050679;28;20613;-52
2022/07/13 12:39:09;;;;;;;3.73;2.17;;;31.00;50.80;;;;;;5050156;28;20435;-52
2022/07/13 12:41:40;;;;;;;6.10;1.80;;;31.00;50.80;;;;;;5046749;28;20458;-52
2022/07/13 12:44:09;;;;;;;6.50;2.40;;;31.00;51.00;;;;;;5065404;22;20491;-44
2022/07/13 12:46:47;;;;;;;2.20;2.00;;;31.00;50.80;;;;;;5051248;28;20438;-45
2022/07/13 12:49:15;;;;;;;3.23;2.67;;;31.00;50.30;;;;;;5050624;28;20437;-45
2022/07/13 12:51:50;;;;;;;5.20;2.17;;;30.90;50.30;;;;;;5050913;28;20525;-45
2022/07/13 12:54:17;;;;;;;4.63;2.40;;;31.00;50.40;;;;;;5050896;28;20450;-45
2022/07/13 12:56:50;;;;;;;2.93;2.23;;;30.90;50.60;;;;;;5050744;28;20481;-45
2022/07/13 12:59:19;;;;;;;4.23;1.53;;;31.00;50.60;;;;;;5051087;28;20849;-44
2022/07/13 13:01:47;;;;;;;4.03;1.73;;;31.00;49.10;;;;;;5050997;28;20439;-46
2022/07/13 13:04:17;;;;;;;3.00;2.00;;;31.00;48.50;;;;;;5050859;28;20458;-45